Time;durP1;ratioP1;P1;durP2;ratioP2;P2;SDS_P1;SDS_P2;PMS_P1;PMS_P2;Temp;Humidity;BMP_temperature;BMP_pressure;BME280_temperature;BME280_humidity;BME280_pressure;Samples;Min_cycle;Max_cycle;Signal;HPM_P1;HPM_P2
2024/03/28 00:24:12;;;;;;;;;;;;;;;;;;;;;
2024/03/28 00:26:46;;;;;;;;;;;;;;;;;;;;;
2024/03/28 00:29:19;;;;;;;0.05;0.05;;;;;;;5.26;100.00;96007.22;4815099;29;20117;-81
2024/03/28 00:31:47;;;;;;;0.00;0.00;;;;;;;5.20;100.00;95995.03;4804465;29;20035;-80
2024/03/28 00:34:15;;;;;;;0.00;0.00;;;;;;;5.13;100.00;95976.63;4814595;29;20046;-81
2024/03/28 00:37:06;;;;;;;0.00;0.00;;;;;;;5.29;100.00;95981.38;4819398;29;20030;-81
2024/03/28 00:39:37;;;;;;;0.00;0.00;;;;;;;5.23;100.00;95959.16;4797393;29;20035;-79
2024/03/28 00:42:02;;;;;;;0.00;0.00;;;;;;;5.19;100.00;95947.41;4835325;29;20051;-80
2024/03/28 00:44:30;;;;;;;0.00;0.00;;;;;;;5.32;100.00;95989.59;4821827;29;20034;-80
2024/03/28 00:46:55;;;;;;;0.00;0.00;;;;;;;5.37;100.00;95964.19;4832665;29;20033;-81
2024/03/28 00:49:44;;;;;;;0.00;0.00;;;;;;;5.26;100.00;95953.06;4817436;29;20031;-80
2024/03/28 00:52:19;;;;;;;0.00;0.00;;;;;;;5.14;100.00;95972.00;4819681;29;20087;-81
2024/03/28 00:54:46;;;;;;;0.00;0.00;;;;;;;4.75;100.00;95960.75;4804862;29;20050;-81
2024/03/28 00:57:12;;;;;;;0.00;0.00;;;;;;;4.67;100.00;95974.03;4808919;29;20042;-80
2024/03/28 00:59:37;;;;;;;0.00;0.00;;;;;;;4.40;100.00;95950.31;4822772;29;20057;-79
2024/03/28 01:02:03;;;;;;;0.00;0.00;;;;;;;4.40;100.00;95966.53;4817798;29;20125;-78
2024/03/28 01:04:28;;;;;;;0.00;0.00;;;;;;;4.42;100.00;95975.09;4802063;29;20062;-78
2024/03/28 01:06:54;;;;;;;0.10;0.10;;;;;;;4.40;100.00;95963.84;4818244;29;20027;-78
2024/03/28 01:09:21;;;;;;;0.00;0.00;;;;;;;4.41;100.00;95952.69;4802621;29;20038;-78
2024/03/28 01:11:57;;;;;;;0.08;0.08;;;;;;;4.33;100.00;95945.44;4804755;29;20174;-78
2024/03/28 01:14:22;;;;;;;0.10;0.10;;;;;;;4.43;100.00;95955.06;4791016;29;20374;-79
2024/03/28 01:16:48;;;;;;;0.10;0.10;;;;;;;4.44;100.00;95960.13;4801737;29;20034;-78
2024/03/28 01:19:21;;;;;;;0.00;0.00;;;;;;;4.14;100.00;95921.63;4813376;29;20047;-78
2024/03/28 01:21:46;;;;;;;0.00;0.00;;;;;;;4.43;100.00;95952.34;4818607;29;20054;-78
2024/03/28 01:24:11;;;;;;;0.00;0.00;;;;;;;4.28;100.00;95927.53;4801820;29;20492;-79
2024/03/28 01:26:44;;;;;;;0.10;0.10;;;;;;;4.19;100.00;95910.59;4820062;29;20034;-78
2024/03/28 01:29:25;;;;;;;0.00;0.00;;;;;;;4.09;100.00;95894.78;4803968;29;20757;-80
2024/03/28 01:31:51;;;;;;;0.00;0.00;;;;;;;4.35;100.00;95933.19;4820938;29;20029;-78
2024/03/28 01:34:16;;;;;;;0.00;0.00;;;;;;;4.18;100.00;95890.09;4797333;29;20034;-79
2024/03/28 01:36:44;;;;;;;0.10;0.10;;;;;;;4.21;100.00;95892.13;4797238;29;20183;-77
2024/03/28 01:39:09;;;;;;;0.00;0.00;;;;;;;4.31;100.00;95916.03;4800538;29;20046;-78
2024/03/28 01:41:37;;;;;;;0.00;0.00;;;;;;;4.39;100.00;95927.09;4827494;29;20033;-77
2024/03/28 01:44:03;;;;;;;0.00;0.00;;;;;;;4.39;100.00;95916.28;4815236;29;20484;-77
2024/03/28 01:46:28;;;;;;;0.00;0.00;;;;;;;4.39;100.00;95921.69;4803802;29;20030;-76
2024/03/28 01:48:55;;;;;;;0.00;0.00;;;;;;;4.23;100.00;95918.84;4819412;29;20083;-77
2024/03/28 01:51:22;;;;;;;0.10;0.10;;;;;;;4.40;100.00;95982.78;4833979;29;21067;-77
2024/03/28 01:53:47;;;;;;;0.00;0.00;;;;;;;4.37;100.00;95968.78;4818981;29;20121;-76
2024/03/28 01:56:14;;;;;;;0.00;0.00;;;;;;;4.32;100.00;95987.13;4799161;29;20125;-76
2024/03/28 01:58:41;;;;;;;0.10;0.10;;;;;;;4.06;100.00;95946.81;4815749;29;20464;-78
2024/03/28 02:01:07;;;;;;;0.00;0.00;;;;;;;3.93;100.00;95970.31;4824626;29;20069;-77
2024/03/28 02:03:35;;;;;;;0.10;0.10;;;;;;;3.87;100.00;95961.66;4816468;29;20047;-77
2024/03/28 02:06:00;;;;;;;0.00;0.00;;;;;;;3.87;100.00;95991.38;4815818;29;20125;-76
2024/03/28 02:08:29;;;;;;;0.00;0.00;;;;;;;3.86;100.00;96019.50;4809536;29;20125;-78
2024/03/28 02:10:56;;;;;;;0.00;0.00;;;;;;;3.72;100.00;95997.34;4809713;29;20764;-76
2024/03/28 02:13:23;;;;;;;0.00;0.00;;;;;;;3.70;100.00;96010.41;4802551;29;20060;-76
2024/03/28 02:15:48;;;;;;;0.00;0.00;;;;;;;3.56;100.00;96045.78;4817601;29;20027;-77
2024/03/28 02:18:16;;;;;;;0.00;0.00;;;;;;;3.47;100.00;96062.03;4807570;29;20478;-77
2024/03/28 02:20:43;;;;;;;0.00;0.00;;;;;;;3.32;100.00;96072.25;4816203;29;20038;-78
2024/03/28 02:23:10;;;;;;;0.10;0.10;;;;;;;3.32;100.00;96083.06;4799724;29;20046;-76
2024/03/28 02:25:35;;;;;;;0.00;0.00;;;;;;;3.34;100.00;96095.47;4783449;29;20546;-77
2024/03/28 02:28:05;;;;;;;0.10;0.10;;;;;;;3.19;100.00;96094.88;4817737;29;20030;-76
2024/03/28 02:30:32;;;;;;;0.00;0.00;;;;;;;3.00;100.00;96097.97;4803735;29;20034;-77
2024/03/28 02:32:58;;;;;;;0.10;0.10;;;;;;;3.17;100.00;96102.53;4816992;29;20119;-76
2024/03/28 02:35:23;;;;;;;0.10;0.10;;;;;;;3.02;100.00;96094.94;4788364;29;20053;-77
2024/03/28 02:37:50;;;;;;;0.00;0.00;;;;;;;2.90;100.00;96082.91;4783457;29;20038;-76
2024/03/28 02:40:15;;;;;;;0.10;0.10;;;;;;;2.84;100.00;96100.38;4800209;29;20098;-77
2024/03/28 02:42:41;;;;;;;0.00;0.00;;;;;;;2.73;100.00;96109.94;4816063;29;20388;-77
2024/03/28 02:45:06;;;;;;;0.00;0.00;;;;;;;2.53;100.00;96085.22;4792085;29;20090;-76
2024/03/28 02:47:32;;;;;;;0.10;0.10;;;;;;;2.38;100.00;96078.44;4814604;29;20099;-76
2024/03/28 02:49:57;;;;;;;0.10;0.10;;;;;;;2.40;100.00;96086.19;4807014;29;20110;-76
2024/03/28 02:52:22;;;;;;;0.10;0.10;;;;;;;2.27;100.00;96090.66;4795750;29;20053;-77
2024/03/28 02:54:48;;;;;;;0.10;0.10;;;;;;;2.18;100.00;96101.44;4803304;29;20067;-77
2024/03/28 02:57:22;;;;;;;0.10;0.10;;;;;;;2.08;100.00;96097.13;4800921;29;20034;-76
2024/03/28 02:59:47;;;;;;;0.10;0.10;;;;;;;2.03;100.00;96096.50;4798704;29;20026;-76
2024/03/28 03:02:15;;;;;;;0.10;0.10;;;;;;;1.95;100.00;96097.31;4813314;29;20053;-76
2024/03/28 03:04:41;;;;;;;0.10;0.10;;;;;;;1.92;100.00;96120.28;4804166;29;20058;-76
2024/03/28 03:07:06;;;;;;;0.00;0.00;;;;;;;2.00;100.00;96130.28;4818722;29;20022;-76
2024/03/28 03:09:31;;;;;;;0.00;0.00;;;;;;;1.91;100.00;96135.66;4821364;29;20042;-77
2024/03/28 03:12:20;;;;;;;0.00;0.00;;;;;;;1.65;100.00;96097.09;4793467;29;20026;-76
2024/03/28 03:14:53;;;;;;;0.10;0.10;;;;;;;1.80;100.00;96137.06;4812733;29;20057;-76
2024/03/28 03:17:21;;;;;;;0.10;0.10;;;;;;;1.76;100.00;96146.84;4808511;29;20038;-76
2024/03/28 03:19:50;;;;;;;0.10;0.10;;;;;;;1.69;100.00;96150.00;4825787;29;20090;-76
2024/03/28 03:22:26;;;;;;;;;;;;;;;;;;;;;
2024/03/28 03:25:10;;;;;;;0.10;0.10;;;;;;;1.38;100.00;96132.00;4826608;29;20063;-77
2024/03/28 03:34:34;;;;;;;0.00;0.00;;;;;;;1.54;100.00;96164.69;4821751;29;20026;-76
2024/03/28 03:36:05;;;;;;;0.10;0.10;;;;;;;1.48;100.00;96219.78;4826587;29;21575;-76
2024/03/28 03:38:31;;;;;;;0.10;0.10;;;;;;;1.46;100.00;96232.78;4816961;29;20053;-76
2024/03/28 03:41:00;;;;;;;0.10;0.10;;;;;;;1.44;100.00;96248.44;4786922;29;20030;-77
2024/03/28 03:43:26;;;;;;;0.10;0.10;;;;;;;1.42;100.00;96256.03;4808553;29;20037;-75
2024/03/28 03:45:58;;;;;;;0.00;0.00;;;;;;;1.29;100.00;96240.75;4813715;29;20374;-75
2024/03/28 03:48:26;;;;;;;0.00;0.00;;;;;;;1.26;100.00;96261.00;4790782;29;20025;-76
2024/03/28 03:50:58;;;;;;;0.10;0.10;;;;;;;1.25;100.00;96269.38;4812390;29;20034;-76
2024/03/28 03:53:26;;;;;;;0.00;0.00;;;;;;;1.02;100.00;96250.53;4812649;29;20039;-76
2024/03/28 03:56:00;;;;;;;0.10;0.10;;;;;;;1.00;100.00;96260.81;4805444;29;20069;-76
2024/03/28 03:58:33;;;;;;;0.08;0.08;;;;;;;0.86;100.00;96247.41;4815938;29;20399;-75
2024/03/28 04:00:59;;;;;;;0.00;0.00;;;;;;;1.02;100.00;96277.44;4818303;29;20039;-76
2024/03/28 04:03:24;;;;;;;0.00;0.00;;;;;;;1.04;100.00;96275.25;4829048;29;20862;-76
2024/03/28 04:05:50;;;;;;;0.00;0.00;;;;;;;1.01;100.00;96260.53;4819606;29;20126;-76
2024/03/28 04:08:16;;;;;;;0.00;0.00;;;;;;;0.99;100.00;96267.31;4813469;29;20079;-76
2024/03/28 04:10:42;;;;;;;0.00;0.00;;;;;;;0.96;100.00;96267.91;4800968;29;20027;-76
2024/03/28 04:13:07;;;;;;;0.00;0.00;;;;;;;0.94;100.00;96265.53;4813310;29;20038;-76
2024/03/28 04:15:32;;;;;;;0.00;0.00;;;;;;;0.84;100.00;96255.78;4804101;29;20034;-76
2024/03/28 04:18:00;;;;;;;0.00;0.00;;;;;;;0.95;100.00;96266.31;4805727;29;20052;-76
2024/03/28 04:20:26;;;;;;;0.00;0.00;;;;;;;1.01;100.00;96262.44;4820455;29;20030;-76
2024/03/28 04:22:51;;;;;;;0.00;0.00;;;;;;;1.04;100.00;96253.75;4820107;29;20066;-75
2024/03/28 04:25:16;;;;;;;0.00;0.00;;;;;;;1.17;100.00;96270.94;4792448;29;20031;-76
2024/03/28 04:27:42;;;;;;;0.10;0.10;;;;;;;1.24;100.00;96281.25;4803947;29;20473;-75
2024/03/28 04:30:08;;;;;;;0.00;0.00;;;;;;;1.29;100.00;96289.22;4816214;29;20038;-76
2024/03/28 04:32:33;;;;;;;0.10;0.10;;;;;;;1.26;100.00;96281.75;4793577;29;20042;-76
2024/03/28 04:34:58;;;;;;;0.00;0.00;;;;;;;1.35;100.00;96286.06;4818218;29;20474;-77
2024/03/28 04:37:24;;;;;;;0.00;0.00;;;;;;;1.38;100.00;96300.81;4801366;29;20181;-76
2024/03/28 04:39:50;;;;;;;0.10;0.10;;;;;;;1.37;100.00;96289.25;4801317;29;20508;-75
2024/03/28 04:42:16;;;;;;;0.00;0.00;;;;;;;1.42;100.00;96301.78;4820034;29;20061;-75
2024/03/28 04:44:41;;;;;;;0.10;0.10;;;;;;;1.49;100.00;96291.38;4798036;29;20470;-76
2024/03/28 04:47:14;;;;;;;0.00;0.00;;;;;;;1.69;100.00;96318.88;4798973;29;20405;-76
2024/03/28 04:49:42;;;;;;;0.00;0.00;;;;;;;1.64;100.00;96302.88;4828005;29;20704;-75
2024/03/28 04:52:07;;;;;;;0.00;0.00;;;;;;;1.75;100.00;96309.56;4820974;29;20046;-75
2024/03/28 04:54:35;;;;;;;0.00;0.00;;;;;;;1.89;100.00;96326.44;4805686;29;20042;-75
2024/03/28 04:57:03;;;;;;;0.10;0.10;;;;;;;1.77;100.00;96291.22;4816534;29;20180;-75
2024/03/28 04:59:28;;;;;;;0.03;0.03;;;;;;;1.90;100.00;96306.47;4809037;29;20470;-75
2024/03/28 05:01:57;;;;;;;0.00;0.00;;;;;;;1.89;100.00;96306.78;4829070;29;20042;-75
2024/03/28 05:04:22;;;;;;;0.00;0.00;;;;;;;1.76;100.00;96270.75;4805645;29;20121;-75
2024/03/28 05:06:48;;;;;;;0.10;0.10;;;;;;;1.80;100.00;96295.97;4790930;29;20029;-75
2024/03/28 05:09:14;;;;;;;0.10;0.10;;;;;;;1.85;100.00;96320.06;4804307;29;20034;-76
2024/03/28 05:11:39;;;;;;;0.10;0.10;;;;;;;2.05;100.00;96328.75;4805430;29;20088;-76
2024/03/28 05:14:05;;;;;;;0.10;0.10;;;;;;;2.04;100.00;96321.75;4786480;29;20653;-76
2024/03/28 05:16:31;;;;;;;0.00;0.00;;;;;;;2.15;100.00;96338.47;4799742;29;20080;-75
2024/03/28 05:19:06;;;;;;;;;;;;;;;;;;;;;
2024/03/28 05:21:32;;;;;;;0.10;0.10;;;;;;;2.15;100.00;96333.06;4807990;29;20034;-75
2024/03/28 05:23:57;;;;;;;0.00;0.00;;;;;;;2.24;100.00;96341.97;4820542;29;20038;-75
2024/03/28 05:26:22;;;;;;;0.00;0.00;;;;;;;2.33;100.00;96344.69;4821228;29;20034;-77
2024/03/28 05:28:48;;;;;;;0.00;0.00;;;;;;;2.21;100.00;96316.44;4796289;29;20059;-77
2024/03/28 05:31:16;;;;;;;0.10;0.10;;;;;;;2.36;100.00;96338.69;4806676;29;20489;-76
2024/03/28 05:33:42;;;;;;;0.10;0.10;;;;;;;2.21;100.00;96312.94;4821829;29;20034;-77
2024/03/28 05:36:10;;;;;;;0.00;0.00;;;;;;;2.41;100.00;96349.31;4816119;29;20103;-78
2024/03/28 05:38:36;;;;;;;0.00;0.00;;;;;;;2.41;100.00;96341.22;4820000;29;20448;-77
2024/03/28 05:41:01;;;;;;;0.00;0.00;;;;;;;2.33;100.00;96315.03;4801505;29;20042;-76
2024/03/28 05:43:37;;;;;;;0.00;0.00;;;;;;;2.19;100.00;96297.09;4790936;29;20122;-78
2024/03/28 05:46:12;;;;;;;0.00;0.00;;;;;;;2.00;100.00;96283.06;4789848;29;20042;-77
2024/03/28 05:48:38;;;;;;;0.00;0.00;;;;;;;2.03;100.00;96290.50;4804433;29;20444;-77
2024/03/28 05:51:06;;;;;;;0.00;0.00;;;;;;;1.99;100.00;96298.44;4805107;29;20034;-77
2024/03/28 05:53:56;;;;;;;0.10;0.10;;;;;;;1.87;100.00;96312.50;4822082;29;20401;-78
2024/03/28 05:56:33;;;;;;;0.00;0.00;;;;;;;1.94;100.00;96332.81;4835536;29;20471;-77
2024/03/28 05:58:59;;;;;;;0.00;0.00;;;;;;;1.92;100.00;96336.59;4806075;29;20462;-76
2024/03/28 06:01:25;;;;;;;0.00;0.00;;;;;;;1.82;100.00;96314.53;4804473;29;20064;-75
2024/03/28 06:03:50;;;;;;;0.10;0.10;;;;;;;1.83;100.00;96319.59;4806588;29;20062;-77
2024/03/28 06:06:16;;;;;;;0.10;0.10;;;;;;;1.91;100.00;96324.25;4821250;29;20038;-77
2024/03/28 06:08:42;;;;;;;0.00;0.00;;;;;;;2.06;100.00;96328.41;4823277;29;20037;-77
2024/03/28 06:19:35;;;;;;;0.00;0.00;;;;;;;2.61;100.00;96335.25;5377107;24;20074;-77
2024/03/28 06:22:01;;;;;;;0.10;0.10;;;;;;;2.84;100.00;96332.44;4807221;29;20087;-76
2024/03/28 06:24:54;;;;;;;0.00;0.00;;;;;;;3.42;100.00;96359.31;4804106;29;20031;-76
2024/03/28 06:27:20;;;;;;;0.03;0.03;;;;;;;3.46;100.00;96335.91;4787147;29;20489;-77
2024/03/28 06:29:51;;;;;;;0.00;0.00;;;;;;;3.65;100.00;96382.31;4821087;29;20114;-77
2024/03/28 06:32:24;;;;;;;0.10;0.10;;;;;;;3.47;100.00;96391.53;4774937;29;20129;-77
2024/03/28 06:34:55;;;;;;;0.00;0.00;;;;;;;3.34;100.00;96389.78;4810069;29;20122;-77
2024/03/28 06:37:21;;;;;;;0.00;0.00;;;;;;;3.15;100.00;96401.69;4808274;29;20034;-77
2024/03/28 06:39:54;;;;;;;0.10;0.10;;;;;;;3.07;100.00;96407.88;4820683;29;20474;-77
2024/03/28 06:42:20;;;;;;;0.00;0.00;;;;;;;2.89;100.00;96415.94;4805199;29;20110;-78
2024/03/28 06:44:52;;;;;;;0.08;0.08;;;;;;;2.84;100.00;96375.59;4805409;29;20534;-77
2024/03/28 06:47:18;;;;;;;0.00;0.00;;;;;;;2.68;100.00;96356.38;4792160;29;20039;-77
2024/03/28 06:49:43;;;;;;;0.00;0.00;;;;;;;2.78;100.00;96361.47;4812458;29;20379;-78
2024/03/28 06:52:09;;;;;;;0.10;0.10;;;;;;;2.84;100.00;96364.81;4793956;29;20031;-77
2024/03/28 06:54:37;;;;;;;0.00;0.00;;;;;;;3.00;100.00;96377.88;4804745;29;20026;-77
2024/03/28 06:57:03;;;;;;;0.00;0.00;;;;;;;3.12;100.00;96359.91;4809489;29;20043;-76
2024/03/28 07:00:16;;;;;;;;;;;;;;;;;;;;;
2024/03/28 07:02:45;;;;;;;0.00;0.00;;;;;;;3.74;100.00;96365.28;4814700;29;20026;-79
2024/03/28 07:05:33;;;;;;;0.00;0.00;;;;;;;3.73;100.00;96337.47;4794997;29;20435;-79
2024/03/28 07:08:19;;;;;;;0.10;0.10;;;;;;;4.27;100.00;96398.41;4819391;29;20026;-77
2024/03/28 07:17:40;;;;;;;0.10;0.10;;;;;;;4.15;100.00;96377.44;4804631;29;20039;-78
2024/03/28 07:20:07;;;;;;;0.10;0.10;;;;;;;4.09;100.00;96374.13;4817523;29;20169;-76
2024/03/28 07:22:33;;;;;;;0.00;0.00;;;;;;;4.08;100.00;96377.94;4816691;29;20040;-77
2024/03/28 07:24:58;;;;;;;0.10;0.10;;;;;;;4.13;100.00;96395.88;4781907;29;20054;-77
2024/03/28 07:27:32;;;;;;;0.10;0.10;;;;;;;3.99;100.00;96385.28;4803163;29;20034;-76
2024/03/28 07:29:58;;;;;;;0.00;0.00;;;;;;;4.04;100.00;96376.97;4831879;29;20034;-77
2024/03/28 07:32:23;;;;;;;0.10;0.10;;;;;;;4.27;100.00;96376.75;4782984;29;20107;-78
2024/03/28 07:34:53;;;;;;;0.00;0.00;;;;;;;4.51;100.00;96384.28;4807031;29;20046;-79
2024/03/28 07:37:32;;;;;;;0.10;0.10;;;;;;;4.56;100.00;96376.00;4815957;29;20030;-80
2024/03/28 07:40:15;;;;;;;0.10;0.10;;;;;;;5.11;100.00;96392.41;4806846;29;20116;-77
2024/03/28 07:42:42;;;;;;;0.00;0.00;;;;;;;5.58;100.00;96359.72;4810485;29;20041;-78
2024/03/28 07:45:10;;;;;;;0.00;0.00;;;;;;;5.95;100.00;96335.41;4820798;29;20038;-78
2024/03/28 07:47:38;;;;;;;0.00;0.00;;;;;;;5.99;100.00;96325.53;4810030;29;20093;-76
2024/03/28 07:50:07;;;;;;;0.10;0.10;;;;;;;6.68;100.00;96357.56;4817970;29;20106;-79
2024/03/28 07:52:56;;;;;;;0.00;0.00;;;;;;;7.11;100.00;96389.56;4805909;29;20138;-77
2024/03/28 07:55:26;;;;;;;0.10;0.10;;;;;;;6.75;100.00;96323.28;4815189;29;20037;-78
2024/03/28 07:57:59;;;;;;;0.00;0.00;;;;;;;7.34;100.00;96345.56;4816469;29;20070;-76
2024/03/28 08:00:32;;;;;;;0.00;0.00;;;;;;;7.68;100.00;96335.25;4805428;29;20166;-77
2024/03/28 08:03:00;;;;;;;0.00;0.00;;;;;;;7.65;100.00;96339.47;4791132;29;20027;-75
2024/03/28 08:05:48;;;;;;;0.00;0.00;;;;;;;7.56;100.00;96370.66;4814971;29;20453;-77
2024/03/28 08:08:14;;;;;;;0.10;0.10;;;;;;;7.40;100.00;96325.16;4815327;29;20050;-78
2024/03/28 08:10:39;;;;;;;0.00;0.00;;;;;;;7.58;100.00;96335.75;4824385;29;20038;-78
2024/03/28 08:13:05;;;;;;;0.00;0.00;;;;;;;8.93;100.00;96341.47;4822573;29;20731;-80
2024/03/28 08:15:33;;;;;;;0.00;0.00;;;;;;;8.39;100.00;96319.97;4816856;29;20632;-79
2024/03/28 08:18:10;;;;;;;0.10;0.10;;;;;;;7.59;100.00;96343.56;4826299;29;20389;-79
2024/03/28 08:20:44;;;;;;;0.00;0.00;;;;;;;7.18;100.00;96361.03;4818265;29;20051;-76
2024/03/28 08:23:10;;;;;;;;;;;;;;;8.82;100.00;96369.25;4818269;29;20037;-77
2024/03/28 08:25:38;;;;;;;0.00;0.00;;;;;;;10.31;100.00;96339.13;4793983;29;19921;-78
2024/03/28 08:28:03;;;;;;;0.00;0.00;;;;;;;11.15;100.00;96344.72;4823153;29;20030;-76
2024/03/28 08:30:30;;;;;;;0.00;0.00;;;;;;;10.01;100.00;96354.59;4801575;29;20091;-77
2024/03/28 08:32:57;;;;;;;0.00;0.00;;;;;;;9.26;100.00;96376.47;4811117;29;20081;-76
2024/03/28 08:35:23;;;;;;;0.00;0.00;;;;;;;9.07;100.00;96352.69;4777447;29;20740;-78
2024/03/28 08:37:49;;;;;;;0.00;0.00;;;;;;;9.76;100.00;96360.34;4798047;29;20031;-77
2024/03/28 08:40:14;;;;;;;0.00;0.00;;;;;;;9.73;100.00;96350.16;4781377;29;20248;-78
2024/03/28 08:42:40;;;;;;;0.00;0.00;;;;;;;9.05;100.00;96331.25;4820209;29;20160;-77
2024/03/28 08:45:12;;;;;;;0.00;0.00;;;;;;;8.53;100.00;96311.41;4808031;29;20038;-78
2024/03/28 08:47:44;;;;;;;0.00;0.00;;;;;;;9.02;100.00;96306.63;4816082;29;20059;-78
2024/03/28 08:50:37;;;;;;;0.10;0.10;;;;;;;10.31;100.00;96341.88;4804264;29;20478;-77
2024/03/28 08:53:03;;;;;;;0.00;0.00;;;;;;;10.99;100.00;96342.19;4800852;29;20061;-76
2024/03/28 08:55:48;;;;;;;0.00;0.00;;;;;;;12.63;100.00;96319.00;4816846;29;20470;-76
2024/03/28 08:58:14;;;;;;;0.00;0.00;;;;;;;11.34;100.00;96319.19;4783732;29;20141;-77
2024/03/28 09:00:39;;;;;;;0.00;0.00;;;;;;;10.30;100.00;96334.03;4806561;29;20126;-75
2024/03/28 09:03:07;;;;;;;0.10;0.10;;;;;;;9.34;100.00;96320.94;4791354;29;20043;-77
2024/03/28 09:05:38;;;;;;;0.00;0.00;;;;;;;8.58;100.00;96323.16;4807699;29;20094;-77
2024/03/28 09:08:04;;;;;;;0.10;0.10;;;;;;;8.17;100.00;96340.41;4815945;29;20086;-77
2024/03/28 09:10:32;;;;;;;0.00;0.00;;;;;;;7.70;100.00;96311.22;4813999;29;20462;-77
2024/03/28 09:12:58;;;;;;;0.00;0.00;;;;;;;7.38;100.00;96316.56;4776159;29;20455;-76
2024/03/28 09:15:28;;;;;;;0.08;0.08;;;;;;;6.96;100.00;96284.31;4782392;29;20026;-78
2024/03/28 09:17:54;;;;;;;0.00;0.00;;;;;;;6.79;100.00;96272.59;4803283;29;20025;-78
2024/03/28 09:20:19;;;;;;;0.00;0.00;;;;;;;6.95;100.00;96299.03;4804284;29;20050;-77
2024/03/28 09:22:51;;;;;;;0.00;0.00;;;;;;;6.79;100.00;96269.88;4791934;29;20585;-77
2024/03/28 09:25:18;;;;;;;0.10;0.10;;;;;;;6.79;100.00;96297.03;4805114;29;20045;-77
2024/03/28 09:27:44;;;;;;;0.10;0.10;;;;;;;6.65;100.00;96291.16;4806068;29;20032;-77
2024/03/28 09:30:11;;;;;;;0.00;0.00;;;;;;;6.48;100.00;96294.91;4813773;29;20427;-76
2024/03/28 09:32:37;;;;;;;0.10;0.10;;;;;;;6.44;100.00;96302.16;4816330;29;20397;-78
2024/03/28 09:35:03;;;;;;;0.00;0.00;;;;;;;6.26;100.00;96307.00;4791129;29;20123;-77
2024/03/28 09:37:29;;;;;;;0.10;0.10;;;;;;;6.02;100.00;96315.94;4785672;29;20129;-76
2024/03/28 09:40:06;;;;;;;0.00;0.00;;;;;;;5.65;100.00;96281.38;4810711;29;20053;-77
2024/03/28 09:42:48;;;;;;;;;;;;;;;;;;;;;
2024/03/28 09:45:14;;;;;;;0.10;0.10;;;;;;;5.14;100.00;96345.72;4815835;29;20027;-78
2024/03/28 09:47:41;;;;;;;0.10;0.10;;;;;;;4.57;100.00;96263.97;4811244;29;20565;-77
2024/03/28 09:56:17;;;;;;;0.00;0.00;;;;;;;4.22;100.00;96312.84;4776345;29;20050;-76
2024/03/28 09:58:42;;;;;;;0.10;0.10;;;;;;;4.13;100.00;96320.19;4810698;29;20444;-79
2024/03/28 10:01:11;;;;;;;0.00;0.00;;;;;;;4.09;100.00;96313.81;4801117;29;20084;-77
2024/03/28 10:03:42;;;;;;;0.00;0.00;;;;;;;4.24;100.00;96332.22;4811950;29;20096;-78
2024/03/28 10:06:08;;;;;;;0.00;0.00;;;;;;;4.09;100.00;96313.81;4794708;29;20125;-76
2024/03/28 10:08:34;;;;;;;0.00;0.00;;;;;;;4.34;100.00;96337.28;4814925;29;20043;-77
2024/03/28 10:11:00;;;;;;;0.00;0.00;;;;;;;4.23;100.00;96314.41;4812989;29;20050;-78
2024/03/28 10:13:47;;;;;;;0.10;0.10;;;;;;;4.27;100.00;96322.69;4816309;29;20439;-77
2024/03/28 10:16:15;;;;;;;0.00;0.00;;;;;;;4.12;100.00;96284.25;4823037;29;20105;-78
2024/03/28 10:18:42;;;;;;;0.10;0.10;;;;;;;4.36;100.00;96318.78;4816338;29;20514;-78
2024/03/28 10:21:14;;;;;;;0.10;0.10;;;;;;;4.51;100.00;96333.69;4795858;29;20050;-78
2024/03/28 10:23:42;;;;;;;0.00;0.00;;;;;;;4.26;100.00;96278.59;4819190;29;20038;-78
2024/03/28 10:26:09;;;;;;;0.10;0.10;;;;;;;4.24;100.00;96288.97;4804575;29;20099;-77
2024/03/28 10:28:55;;;;;;;0.00;0.00;;;;;;;4.61;100.00;96316.28;4817382;29;20034;-77
2024/03/28 10:31:27;;;;;;;0.10;0.10;;;;;;;4.43;100.00;96258.78;4819387;29;20064;-78
2024/03/28 10:33:53;;;;;;;0.00;0.00;;;;;;;4.76;100.00;96292.47;4807033;29;20050;-77
2024/03/28 10:36:24;;;;;;;0.00;0.00;;;;;;;4.77;100.00;96285.94;4813383;29;20039;-77
2024/03/28 10:39:09;;;;;;;0.00;0.00;;;;;;;4.72;100.00;96271.47;4814130;29;20067;-78
2024/03/28 10:41:35;;;;;;;0.00;0.00;;;;;;;4.86;100.00;96281.25;4811744;29;20026;-77
2024/03/28 10:44:09;;;;;;;0.00;0.00;;;;;;;4.87;100.00;96272.03;4809950;29;20048;-77
2024/03/28 10:46:42;;;;;;;0.00;0.00;;;;;;;4.83;100.00;96257.56;4796497;29;20126;-77
2024/03/28 10:49:07;;;;;;;0.00;0.00;;;;;;;4.87;100.00;96223.28;4815196;29;20066;-78
2024/03/28 10:54:49;;;;;;;0.00;0.00;;;;;;;5.24;100.00;96258.63;4799216;29;20038;-78
2024/03/28 10:57:17;;;;;;;0.00;0.00;;;;;;;5.54;100.00;96272.06;4835126;29;20385;-78
2024/03/28 10:59:43;;;;;;;0.00;0.00;;;;;;;5.49;100.00;96253.31;4803887;29;20048;-78
2024/03/28 11:02:22;;;;;;;0.00;0.00;;;;;;;5.42;100.00;96254.66;4812325;29;20042;-78
2024/03/28 11:04:49;;;;;;;0.00;0.00;;;;;;;5.42;100.00;96235.69;4817102;29;20030;-77
2024/03/28 11:07:17;;;;;;;0.03;0.03;;;;;;;5.39;100.00;96244.47;4812814;29;20035;-75
2024/03/28 11:09:53;;;;;;;0.00;0.00;;;;;;;5.35;100.00;96270.66;4814509;29;20118;-78
2024/03/28 11:13:34;;;;;;;;;;;;;;;;;;;;;
2024/03/28 11:16:46;;;;;;;0.10;0.10;;;;;;;5.88;100.00;96272.81;4817054;29;20134;-77
2024/03/28 11:19:24;;;;;;;0.00;0.00;;;;;;;5.93;100.00;96351.25;4774470;29;20387;-77
2024/03/28 11:21:54;;;;;;;0.00;0.00;;;;;;;5.91;100.00;96231.47;4822785;29;20390;-79
2024/03/28 11:24:44;;;;;;;0.00;0.00;;;;;;;5.88;100.00;96221.28;4813097;29;20120;-77
2024/03/28 11:27:23;;;;;;;0.00;0.00;;;;;;;5.97;100.00;96268.09;4795221;29;20050;-77
2024/03/28 11:29:53;;;;;;;0.00;0.00;;;;;;;6.02;100.00;96270.59;4829496;29;20041;-78
2024/03/28 11:32:25;;;;;;;0.00;0.00;;;;;;;5.99;100.00;96249.59;4816179;29;20090;-76
2024/03/28 11:35:25;;;;;;;0.00;0.00;;;;;;;5.89;100.00;96234.50;4819822;29;20077;-77
2024/03/28 11:38:01;;;;;;;0.00;0.00;;;;;;;5.84;100.00;96242.06;4827077;29;20098;-77
2024/03/28 11:40:26;;;;;;;0.00;0.00;;;;;;;5.79;100.00;96247.72;4824262;29;20034;-76
2024/03/28 11:42:55;;;;;;;0.00;0.00;;;;;;;5.87;100.00;96235.97;4806447;29;20450;-77
2024/03/28 11:45:21;;;;;;;0.00;0.00;;;;;;;6.22;100.00;96241.00;4832667;29;20037;-76
2024/03/28 11:47:48;;;;;;;0.10;0.10;;;;;;;6.40;100.00;96242.34;4826806;29;20623;-77
2024/03/28 11:50:14;;;;;;;0.10;0.10;;;;;;;6.37;100.00;96251.16;4798183;29;20126;-77
2024/03/28 11:52:39;;;;;;;0.00;0.00;;;;;;;6.24;100.00;96255.03;4804720;29;20117;-77
2024/03/28 11:55:05;;;;;;;0.00;0.00;;;;;;;6.10;100.00;96245.31;4804904;29;20149;-79
2024/03/28 11:57:31;;;;;;;0.10;0.10;;;;;;;5.98;100.00;96212.75;4802764;29;20090;-77
2024/03/28 12:00:07;;;;;;;0.00;0.00;;;;;;;6.25;100.00;96229.44;4810607;29;20474;-78
2024/03/28 12:02:32;;;;;;;0.00;0.00;;;;;;;6.29;100.00;96246.63;4824473;29;20035;-77
2024/03/28 12:05:05;;;;;;;0.00;0.00;;;;;;;6.44;100.00;96232.38;4820310;29;20034;-78
2024/03/28 12:07:33;;;;;;;0.00;0.00;;;;;;;6.42;100.00;96215.66;4833650;29;20018;-77
2024/03/28 12:09:59;;;;;;;0.00;0.00;;;;;;;6.49;100.00;96236.00;4805929;29;20030;-77
2024/03/28 12:12:25;;;;;;;0.00;0.00;;;;;;;6.38;100.00;96255.47;4822244;29;20140;-79
2024/03/28 12:15:01;;;;;;;0.00;0.00;;;;;;;6.34;100.00;96249.13;4827476;29;20037;-78
2024/03/28 12:17:28;;;;;;;0.00;0.00;;;;;;;6.50;100.00;96224.81;4824384;29;20209;-76
2024/03/28 12:19:53;;;;;;;0.00;0.00;;;;;;;6.90;100.00;96242.25;4828483;29;20054;-77
2024/03/28 12:22:18;;;;;;;0.00;0.00;;;;;;;6.80;100.00;96232.66;4818848;29;20049;-78
2024/03/28 12:24:44;;;;;;;0.00;0.00;;;;;;;6.78;100.00;96214.00;4807133;29;20171;-78
2024/03/28 12:27:14;;;;;;;0.00;0.00;;;;;;;7.09;100.00;96215.22;4810490;29;20027;-78
2024/03/28 12:29:42;;;;;;;0.00;0.00;;;;;;;8.08;100.00;96203.78;4820075;29;20029;-78
2024/03/28 12:32:09;;;;;;;0.00;0.00;;;;;;;9.34;100.00;96179.16;4805131;29;20580;-77
2024/03/28 12:34:35;;;;;;;0.00;0.00;;;;;;;10.36;100.00;96217.13;4809581;29;20383;-79
2024/03/28 12:37:01;;;;;;;0.00;0.00;;;;;;;10.30;100.00;96181.91;4822686;29;20041;-77
2024/03/28 12:39:27;;;;;;;0.00;0.00;;;;;;;9.76;100.00;96202.13;4828400;29;20137;-77
2024/03/28 12:41:53;;;;;;;0.00;0.00;;;;;;;9.30;100.00;96183.78;4808685;29;20129;-77
2024/03/28 12:44:19;;;;;;;0.00;0.00;;;;;;;8.98;100.00;96218.56;4836543;29;20436;-78
2024/03/28 12:46:44;;;;;;;0.00;0.00;;;;;;;8.46;100.00;96232.28;4816020;29;20076;-76